createdAt,value
2022-12-08T00:00:08.262Z,4.50
2022-12-08T00:02:35.147Z,4.50
2022-12-08T00:05:20.584Z,4.50
2022-12-08T00:08:06.144Z,4.50
2022-12-08T00:10:49.752Z,4.40
2022-12-08T00:13:16.921Z,4.40
2022-12-08T00:15:43.664Z,4.40
2022-12-08T00:18:10.380Z,4.40
2022-12-08T00:20:37.140Z,4.40
2022-12-08T00:23:04.343Z,4.40
2022-12-08T00:25:31.815Z,4.40
2022-12-08T00:27:58.602Z,4.50
2022-12-08T00:30:25.335Z,4.50
2022-12-08T00:32:52.080Z,4.50
2022-12-08T00:35:18.824Z,4.50
2022-12-08T00:37:46.389Z,4.40
2022-12-08T00:40:13.169Z,4.40
2022-12-08T00:42:39.893Z,4.40
2022-12-08T00:45:07.151Z,4.50
2022-12-08T00:47:33.976Z,4.50
2022-12-08T00:50:00.721Z,4.40
2022-12-08T00:52:27.560Z,4.40
2022-12-08T00:54:54.281Z,4.50
2022-12-08T00:57:21.000Z,4.50
2022-12-08T00:59:47.729Z,4.40
2022-12-08T01:02:15.208Z,4.40
2022-12-08T01:04:42.015Z,4.40
2022-12-08T01:07:09.029Z,4.40
2022-12-08T01:09:36.026Z,4.40
2022-12-08T01:12:02.739Z,4.40
2022-12-08T01:14:29.466Z,4.40
2022-12-08T01:16:56.194Z,4.40
2022-12-08T01:19:22.985Z,4.40
2022-12-08T01:21:49.688Z,4.40
2022-12-08T01:24:19.831Z,4.40
2022-12-08T01:26:48.139Z,4.40
2022-12-08T01:29:15.179Z,4.40
2022-12-08T01:31:41.973Z,4.40
2022-12-08T01:34:10.279Z,4.40
2022-12-08T01:36:38.220Z,4.40
2022-12-08T01:39:08.056Z,4.40
2022-12-08T01:41:37.447Z,4.40
2022-12-08T01:44:08.286Z,4.40
2022-12-08T01:46:37.419Z,4.40
2022-12-08T01:49:19.142Z,4.40
2022-12-08T01:51:51.309Z,4.40
2022-12-08T01:54:19.622Z,4.40
2022-12-08T01:56:58.651Z,4.40
2022-12-08T01:59:26.104Z,4.30
2022-12-08T02:01:53.159Z,4.30
2022-12-08T02:04:19.908Z,4.30
2022-12-08T02:06:48.791Z,4.30
2022-12-08T02:09:15.666Z,4.30
2022-12-08T02:11:42.378Z,4.30
2022-12-08T02:14:11.768Z,4.30
2022-12-08T02:16:49.351Z,4.20
2022-12-08T02:19:31.239Z,4.20
2022-12-08T02:22:07.028Z,4.20
2022-12-08T02:24:39.042Z,4.10
2022-12-08T02:27:11.895Z,4.10
2022-12-08T02:30:15.373Z,4.10
2022-12-08T02:33:19.673Z,4.00
2022-12-08T02:36:00.069Z,4.00
2022-12-08T02:38:38.813Z,4.00
2022-12-08T02:41:23.533Z,4.00
2022-12-08T02:44:13.523Z,4.00
2022-12-08T02:46:54.185Z,4.00
2022-12-08T02:49:20.974Z,4.00
2022-12-08T02:51:47.689Z,4.00
2022-12-08T02:54:15.468Z,4.00
2022-12-08T02:56:45.270Z,4.00
2022-12-08T02:59:56.779Z,4.00
2022-12-08T03:02:48.045Z,4.00
2022-12-08T03:05:31.511Z,4.10
2022-12-08T03:08:14.173Z,4.10
2022-12-08T03:10:52.365Z,4.10
2022-12-08T03:13:29.619Z,4.10
2022-12-08T03:15:56.947Z,4.10
2022-12-08T03:18:28.500Z,4.10
2022-12-08T03:20:55.958Z,4.20
2022-12-08T03:23:24.045Z,4.10
2022-12-08T03:26:15.338Z,4.10
2022-12-08T03:28:42.292Z,4.10
2022-12-08T03:31:14.467Z,4.10
2022-12-08T03:33:44.612Z,4.10
2022-12-08T03:36:13.168Z,4.20
2022-12-08T03:38:42.528Z,4.20
2022-12-08T03:41:18.471Z,4.20
2022-12-08T03:43:53.004Z,4.20
2022-12-08T03:48:48.494Z,4.30
2022-12-08T03:51:15.996Z,4.20
2022-12-08T03:53:42.977Z,4.20
2022-12-08T03:56:24.268Z,4.20
2022-12-08T03:58:51.462Z,4.20
2022-12-08T04:01:18.382Z,4.20
2022-12-08T04:03:45.310Z,4.30
2022-12-08T04:06:12.193Z,4.20
2022-12-08T04:08:39.395Z,4.20
2022-12-08T04:11:06.729Z,4.10
2022-12-08T04:13:37.680Z,4.10
2022-12-08T04:16:05.402Z,4.20
2022-12-08T04:18:33.527Z,4.10
2022-12-08T04:21:00.435Z,4.20
2022-12-08T04:23:27.227Z,4.20
2022-12-08T04:25:54.245Z,4.20
2022-12-08T04:28:21.731Z,4.30
2022-12-08T04:30:49.682Z,4.30
2022-12-08T04:33:17.103Z,4.30
2022-12-08T04:35:43.893Z,4.30
2022-12-08T04:38:10.656Z,4.30
2022-12-08T04:40:37.374Z,4.30
2022-12-08T04:43:04.450Z,4.30
2022-12-08T04:45:31.898Z,4.30
2022-12-08T04:48:00.353Z,4.30
2022-12-08T04:50:27.526Z,4.30
2022-12-08T04:52:54.291Z,4.30
2022-12-08T04:55:21.399Z,4.30
2022-12-08T04:57:48.198Z,4.30
2022-12-08T05:00:16.477Z,4.30
2022-12-08T05:02:43.278Z,4.30
2022-12-08T05:05:10.563Z,4.30
2022-12-08T05:07:37.918Z,4.40
2022-12-08T05:10:05.779Z,4.40
2022-12-08T05:12:33.181Z,4.40
2022-12-08T05:14:59.882Z,4.30
2022-12-08T05:17:26.583Z,4.30
2022-12-08T05:19:53.374Z,4.30
2022-12-08T05:22:20.070Z,4.30
2022-12-08T05:24:47.791Z,4.30
2022-12-08T05:27:15.125Z,4.20
2022-12-08T05:29:42.316Z,4.30
2022-12-08T05:32:09.279Z,4.20
2022-12-08T05:34:36.101Z,4.30
2022-12-08T05:37:02.825Z,4.30
2022-12-08T05:39:29.561Z,4.30
2022-12-08T05:41:56.276Z,4.20
2022-12-08T05:44:23.061Z,4.20
2022-12-08T05:46:49.821Z,4.20
2022-12-08T05:49:16.583Z,4.20
2022-12-08T05:51:43.436Z,4.20
2022-12-08T05:54:10.478Z,4.20
2022-12-08T05:56:37.207Z,4.30
2022-12-08T05:59:07.001Z,4.30
2022-12-08T06:01:33.940Z,4.30
2022-12-08T06:04:02.247Z,4.30
2022-12-08T06:06:29.663Z,4.20
2022-12-08T06:08:56.523Z,4.30
2022-12-08T06:11:29.217Z,4.20
2022-12-08T06:13:56.848Z,4.20
2022-12-08T06:16:26.059Z,4.20
2022-12-08T06:18:53.471Z,4.20
2022-12-08T06:21:20.840Z,4.20
2022-12-08T06:23:52.854Z,4.20
2022-12-08T06:26:20.520Z,4.20
2022-12-08T06:28:47.604Z,4.20
2022-12-08T06:31:20.422Z,4.20
2022-12-08T06:33:47.795Z,4.20
2022-12-08T06:36:15.877Z,4.20
2022-12-08T06:38:43.835Z,4.30
2022-12-08T06:41:11.353Z,4.20
2022-12-08T06:43:38.619Z,4.20
2022-12-08T06:46:07.447Z,4.20
2022-12-08T06:48:34.622Z,4.20
2022-12-08T06:51:13.135Z,4.20
2022-12-08T06:53:41.114Z,4.30
2022-12-08T06:56:08.814Z,4.30
2022-12-08T06:58:35.793Z,4.20
2022-12-08T07:01:12.535Z,4.30
2022-12-08T07:03:40.327Z,4.20
2022-12-08T07:06:07.491Z,4.20
2022-12-08T07:08:34.949Z,4.20
2022-12-08T07:11:08.589Z,4.20
2022-12-08T07:13:35.453Z,4.20
2022-12-08T07:16:08.857Z,4.20
2022-12-08T07:18:36.399Z,4.20
2022-12-08T07:21:19.797Z,4.20
2022-12-08T07:23:50.187Z,4.20
2022-12-08T07:26:20.882Z,4.20
2022-12-08T07:28:47.585Z,4.20
2022-12-08T07:31:26.307Z,4.20
2022-12-08T07:33:53.502Z,4.20
2022-12-08T07:36:21.472Z,4.20
2022-12-08T07:38:49.214Z,4.20
2022-12-08T07:41:18.563Z,4.20
2022-12-08T07:43:45.772Z,4.20
2022-12-08T07:46:17.948Z,4.20
2022-12-08T07:48:44.939Z,4.20
2022-12-08T07:51:13.858Z,4.20
2022-12-08T07:53:43.396Z,4.20
2022-12-08T07:56:13.072Z,4.20
2022-12-08T07:58:40.673Z,4.20
2022-12-08T08:01:18.213Z,4.20
2022-12-08T08:03:45.033Z,4.20
2022-12-08T08:06:11.745Z,4.30
2022-12-08T08:08:42.159Z,4.30
2022-12-08T08:11:17.436Z,4.20
2022-12-08T08:13:47.459Z,4.20
2022-12-08T08:16:14.307Z,4.20
2022-12-08T08:18:41.361Z,4.20
2022-12-08T08:21:43.135Z,4.20
2022-12-08T08:23:54.874Z,4.20
2022-12-08T08:26:21.659Z,4.20
2022-12-08T08:28:49.992Z,4.30
2022-12-08T08:31:16.921Z,4.30
2022-12-08T08:33:43.789Z,4.40
2022-12-08T08:36:10.993Z,4.40
2022-12-08T08:38:42.815Z,4.40
2022-12-08T08:41:10.800Z,4.50
2022-12-08T08:43:38.836Z,4.50
2022-12-08T08:46:06.426Z,4.50
2022-12-08T08:48:33.357Z,4.50
2022-12-08T08:51:11.047Z,4.50
2022-12-08T08:53:38.256Z,4.60
2022-12-08T08:56:15.651Z,4.60
2022-12-08T08:58:42.573Z,4.70
2022-12-08T09:01:09.459Z,4.70
2022-12-08T09:03:36.264Z,4.70
2022-12-08T09:06:02.988Z,4.70
2022-12-08T09:08:29.857Z,4.60
2022-12-08T09:10:57.073Z,4.60
2022-12-08T09:13:23.840Z,4.60
2022-12-08T09:15:50.616Z,4.60
2022-12-08T09:18:17.428Z,4.50
2022-12-08T09:20:44.116Z,4.50
2022-12-08T09:23:10.923Z,4.50
2022-12-08T09:25:37.663Z,4.50
2022-12-08T09:28:04.487Z,4.50
2022-12-08T09:30:31.183Z,4.50
2022-12-08T09:32:57.885Z,4.50
2022-12-08T09:35:24.536Z,4.50
2022-12-08T09:37:51.206Z,4.60
2022-12-08T09:40:21.204Z,4.60
2022-12-08T09:42:51.407Z,4.60
2022-12-08T09:45:19.227Z,4.60
2022-12-08T09:47:57.864Z,4.70
2022-12-08T09:50:27.288Z,4.70
2022-12-08T09:52:59.824Z,4.70
2022-12-08T09:55:55.974Z,4.70
2022-12-08T09:58:29.663Z,4.70
2022-12-08T10:00:56.561Z,4.70
2022-12-08T10:03:28.999Z,4.70
2022-12-08T10:06:13.400Z,4.70
2022-12-08T10:09:32.871Z,4.70
2022-12-08T10:12:26.558Z,4.70
2022-12-08T10:15:10.208Z,4.70
2022-12-08T10:17:41.283Z,4.80
2022-12-08T10:20:21.229Z,4.80
2022-12-08T10:22:58.898Z,4.80
2022-12-08T10:25:45.439Z,4.70
2022-12-08T10:28:12.602Z,4.70
2022-12-08T10:30:39.714Z,4.80
2022-12-08T10:33:15.528Z,4.90
2022-12-08T10:35:46.099Z,5.00
2022-12-08T10:38:31.101Z,5.00
2022-12-08T10:41:06.710Z,5.10
2022-12-08T10:43:34.373Z,5.20
2022-12-08T10:46:26.824Z,5.30
2022-12-08T10:49:11.589Z,5.30
2022-12-08T10:51:42.831Z,5.30
2022-12-08T10:54:34.062Z,5.20
2022-12-08T10:57:00.880Z,5.20
2022-12-08T10:59:27.693Z,5.20
2022-12-08T11:01:56.501Z,5.20
2022-12-08T11:04:34.059Z,5.20
2022-12-08T11:07:00.879Z,5.10
2022-12-08T11:09:43.810Z,5.20
2022-12-08T11:12:15.570Z,5.20
2022-12-08T11:14:45.782Z,5.10
2022-12-08T11:17:16.787Z,5.10
2022-12-08T11:20:10.471Z,5.10
2022-12-08T11:22:42.577Z,5.10
2022-12-08T11:25:17.852Z,5.10
2022-12-08T11:27:47.414Z,5.20
2022-12-08T11:30:19.391Z,5.20
2022-12-08T11:32:49.165Z,5.20
2022-12-08T11:35:32.532Z,5.20
2022-12-08T11:38:20.480Z,5.20
2022-12-08T11:41:15.799Z,5.20
2022-12-08T11:43:45.678Z,5.20
2022-12-08T11:46:19.802Z,5.20
2022-12-08T11:48:53.513Z,5.20
2022-12-08T11:51:29.301Z,5.20
2022-12-08T11:54:35.177Z,5.20
2022-12-08T11:57:05.681Z,5.20
2022-12-08T11:59:38.315Z,5.20
2022-12-08T12:02:06.084Z,5.20
2022-12-08T12:04:37.932Z,5.20
2022-12-08T12:07:35.091Z,5.30
2022-12-08T12:10:25.508Z,5.30
2022-12-08T12:12:52.179Z,5.30
2022-12-08T12:15:50.686Z,5.30
2022-12-08T12:18:46.317Z,5.30
2022-12-08T12:21:22.626Z,5.30
2022-12-08T12:23:59.278Z,5.30
2022-12-08T12:26:29.460Z,5.30
2022-12-08T12:29:07.119Z,5.30
2022-12-08T12:31:36.406Z,5.40
2022-12-08T12:34:17.263Z,5.40
2022-12-08T12:37:03.397Z,5.40
2022-12-08T12:39:34.309Z,5.40
2022-12-08T12:42:03.473Z,5.40
2022-12-08T12:44:30.150Z,5.40
2022-12-08T12:47:02.214Z,5.40
2022-12-08T12:49:41.055Z,5.50
2022-12-08T12:52:16.579Z,5.50
2022-12-08T12:54:49.510Z,5.60
2022-12-08T12:57:23.190Z,5.60
2022-12-08T12:59:55.592Z,5.60
2022-12-08T13:02:36.729Z,5.60
2022-12-08T13:05:26.891Z,5.60
2022-12-08T13:08:22.864Z,5.60
2022-12-08T13:11:00.203Z,5.60
2022-12-08T13:13:27.372Z,5.60
2022-12-08T13:15:56.672Z,5.60
2022-12-08T13:18:39.612Z,5.60
2022-12-08T13:21:09.264Z,5.50
2022-12-08T13:23:38.746Z,5.50
2022-12-08T13:26:09.796Z,5.50
2022-12-08T13:28:59.012Z,5.50
2022-12-08T13:31:57.895Z,5.50
2022-12-08T13:34:52.056Z,5.40
2022-12-08T13:37:55.955Z,5.40
2022-12-08T13:40:30.116Z,5.40
2022-12-08T13:43:10.538Z,5.30
2022-12-08T13:46:31.882Z,5.30
2022-12-08T13:50:36.631Z,5.30
2022-12-08T13:57:30.791Z,5.30
2022-12-08T14:00:04.090Z,5.30
2022-12-08T14:02:43.774Z,5.30
2022-12-08T14:05:19.401Z,5.30
2022-12-08T14:07:49.536Z,5.20
2022-12-08T14:10:18.490Z,5.20
2022-12-08T14:12:48.322Z,5.20
2022-12-08T14:15:15.950Z,5.20
2022-12-08T14:17:54.557Z,5.20
2022-12-08T14:20:30.060Z,5.20
2022-12-08T14:22:58.980Z,5.10
2022-12-08T14:25:29.672Z,5.20
2022-12-08T14:28:01.620Z,5.20
2022-12-08T14:30:33.471Z,5.10
2022-12-08T14:33:02.533Z,5.20
2022-12-08T14:35:37.927Z,5.20
2022-12-08T14:38:15.805Z,5.10
2022-12-08T14:41:04.304Z,5.10
2022-12-08T14:43:31.613Z,5.10
2022-12-08T14:46:05.088Z,5.10
2022-12-08T14:48:33.474Z,5.10
2022-12-08T14:51:13.132Z,5.10
2022-12-08T14:53:47.822Z,5.10
2022-12-08T14:56:18.283Z,5.10
2022-12-08T14:58:45.675Z,5.10
2022-12-08T15:01:21.363Z,5.10
2022-12-08T15:03:51.365Z,5.10
2022-12-08T15:06:21.843Z,5.10
2022-12-08T15:09:27.495Z,5.10
2022-12-08T15:12:06.389Z,5.00
2022-12-08T15:14:35.998Z,5.00
2022-12-08T15:17:03.198Z,5.00
2022-12-08T15:19:34.355Z,5.00
2022-12-08T15:22:20.932Z,5.00
2022-12-08T15:24:47.579Z,5.00
2022-12-08T15:27:21.192Z,5.00
2022-12-08T15:29:48.751Z,5.00
2022-12-08T15:32:19.423Z,5.00
2022-12-08T15:34:46.451Z,5.00
2022-12-08T15:37:19.156Z,5.00
2022-12-08T15:39:45.871Z,4.90
2022-12-08T15:42:14.499Z,4.90
2022-12-08T15:44:41.729Z,4.90
2022-12-08T15:47:19.795Z,4.90
2022-12-08T15:49:47.653Z,4.90
2022-12-08T15:52:16.970Z,4.90
2022-12-08T15:54:43.784Z,4.90
2022-12-08T15:57:53.025Z,4.90
2022-12-08T16:04:02.718Z,4.90
2022-12-08T16:09:12.432Z,4.90
2022-12-08T16:12:07.719Z,4.90
2022-12-08T16:17:23.461Z,4.80
2022-12-08T16:19:50.099Z,4.80
2022-12-08T16:25:20.336Z,4.80
2022-12-08T16:30:36.877Z,4.90
2022-12-08T16:33:03.911Z,4.90
2022-12-08T16:35:31.047Z,4.90
2022-12-08T16:37:58.237Z,4.80
2022-12-08T16:40:25.202Z,4.90
2022-12-08T16:42:51.932Z,4.80
2022-12-08T16:45:24.468Z,4.80
2022-12-08T16:47:56.524Z,4.80
2022-12-08T16:50:29.094Z,4.80
2022-12-08T16:53:07.563Z,4.80
2022-12-08T16:55:35.079Z,4.80
2022-12-08T16:58:02.804Z,4.70
2022-12-08T17:00:30.959Z,4.70
2022-12-08T17:02:58.912Z,4.70
2022-12-08T17:05:26.830Z,4.60
2022-12-08T17:07:54.220Z,4.60
2022-12-08T17:10:26.717Z,4.60
2022-12-08T17:12:53.576Z,4.50
2022-12-08T17:15:24.300Z,4.50
2022-12-08T17:17:51.562Z,4.50
2022-12-08T17:20:26.698Z,4.50
2022-12-08T17:22:55.351Z,4.40
2022-12-08T17:25:22.144Z,4.40
2022-12-08T17:27:48.894Z,4.30
2022-12-08T17:30:17.565Z,4.30
2022-12-08T17:32:44.551Z,4.30
2022-12-08T17:35:13.237Z,4.20
2022-12-08T17:37:40.405Z,4.20
2022-12-08T17:40:08.103Z,4.20
2022-12-08T17:42:35.027Z,4.20
2022-12-08T17:45:01.743Z,4.20
2022-12-08T17:47:28.469Z,4.10
2022-12-08T17:49:56.009Z,4.10
2022-12-08T17:52:22.814Z,4.10
2022-12-08T17:54:49.738Z,4.10
2022-12-08T17:57:16.416Z,4.00
2022-12-08T17:59:46.076Z,4.10
2022-12-08T18:02:12.814Z,4.10
2022-12-08T18:04:39.552Z,4.10
2022-12-08T18:07:06.245Z,4.10
2022-12-08T18:09:33.751Z,4.10
2022-12-08T18:12:00.497Z,4.10
2022-12-08T18:14:27.294Z,4.10
2022-12-08T18:16:54.097Z,4.10
2022-12-08T18:19:20.885Z,4.10
2022-12-08T18:21:47.561Z,4.10
2022-12-08T18:24:23.226Z,4.20
2022-12-08T18:26:52.047Z,4.20
2022-12-08T18:29:19.390Z,4.20
2022-12-08T18:31:46.070Z,4.20
2022-12-08T18:34:12.857Z,4.30
2022-12-08T18:36:39.606Z,4.30
2022-12-08T18:39:10.731Z,4.40
2022-12-08T18:41:37.839Z,4.40
2022-12-08T18:44:04.663Z,4.40
2022-12-08T18:46:31.763Z,4.50
2022-12-08T18:48:59.386Z,4.40
2022-12-08T18:51:26.083Z,4.40
2022-12-08T18:53:53.226Z,4.40
2022-12-08T18:56:31.232Z,4.30
2022-12-08T18:59:03.619Z,4.30
2022-12-08T19:01:34.831Z,4.30
2022-12-08T19:04:27.351Z,4.30
2022-12-08T19:06:51.773Z,4.30
2022-12-08T19:09:18.970Z,4.30
2022-12-08T19:11:45.662Z,4.30
2022-12-08T19:14:12.480Z,4.40
2022-12-08T19:16:39.154Z,4.40
2022-12-08T19:19:05.983Z,4.40
2022-12-08T19:21:33.233Z,4.40
2022-12-08T19:24:00.109Z,4.40
2022-12-08T19:26:28.501Z,4.40
2022-12-08T19:28:55.771Z,4.40
2022-12-08T19:31:22.556Z,4.40
2022-12-08T19:33:49.517Z,4.30
2022-12-08T19:36:18.835Z,4.30
2022-12-08T19:39:04.653Z,4.20
2022-12-08T19:41:50.147Z,4.20
2022-12-08T19:44:45.224Z,4.20
2022-12-08T19:47:12.146Z,4.20
2022-12-08T19:49:39.005Z,4.20
2022-12-08T19:52:06.539Z,4.20
2022-12-08T19:54:33.833Z,4.10
2022-12-08T19:57:01.146Z,4.10
2022-12-08T19:59:29.987Z,4.10
2022-12-08T20:01:58.220Z,4.10
2022-12-08T20:04:25.949Z,4.10
2022-12-08T20:06:54.091Z,4.10
2022-12-08T20:09:21.207Z,4.00
2022-12-08T20:11:48.007Z,4.10
2022-12-08T20:14:14.698Z,4.10
2022-12-08T20:16:41.709Z,4.00
2022-12-08T20:19:09.160Z,4.00
2022-12-08T20:21:35.934Z,4.00
2022-12-08T20:24:04.538Z,3.90
2022-12-08T20:26:31.395Z,3.90
2022-12-08T20:28:58.247Z,3.90
2022-12-08T20:31:28.041Z,3.80
2022-12-08T20:33:55.095Z,3.80
2022-12-08T20:36:22.448Z,3.90
2022-12-08T20:38:51.479Z,3.90
2022-12-08T20:41:19.449Z,3.90
2022-12-08T20:43:50.245Z,3.90
2022-12-08T20:46:18.999Z,3.80
2022-12-08T20:48:45.840Z,3.80
2022-12-08T20:51:15.288Z,3.80
2022-12-08T20:53:42.477Z,3.90
2022-12-08T20:56:14.646Z,4.00
2022-12-08T20:58:42.025Z,4.00
2022-12-08T21:01:10.771Z,3.90
2022-12-08T21:03:37.990Z,3.90
2022-12-08T21:06:05.068Z,3.90
2022-12-08T21:08:31.946Z,3.90
2022-12-08T21:10:58.848Z,3.90
2022-12-08T21:13:25.867Z,3.90
2022-12-08T21:15:52.948Z,3.90
2022-12-08T21:18:19.932Z,3.90
2022-12-08T21:20:48.250Z,3.90
2022-12-08T21:23:15.968Z,3.80
2022-12-08T21:25:47.394Z,3.90
2022-12-08T21:28:14.530Z,3.90
2022-12-08T21:30:43.220Z,3.90
2022-12-08T21:33:10.304Z,4.00
2022-12-08T21:35:37.660Z,4.00
2022-12-08T21:38:06.438Z,3.90
2022-12-08T21:40:35.179Z,3.90
2022-12-08T21:43:03.740Z,4.00
2022-12-08T21:45:32.632Z,4.00
2022-12-08T21:48:01.367Z,4.00
2022-12-08T21:50:31.256Z,4.00
2022-12-08T21:52:58.059Z,4.10
2022-12-08T21:55:25.060Z,4.00
2022-12-08T21:57:51.895Z,4.10
2022-12-08T22:00:19.360Z,4.10
2022-12-08T22:02:46.987Z,4.00
2022-12-08T22:05:13.974Z,4.00
2022-12-08T22:07:41.426Z,4.00
2022-12-08T22:10:10.385Z,3.90
2022-12-08T22:12:37.951Z,3.90
2022-12-08T22:15:07.289Z,4.00
2022-12-08T22:17:39.503Z,3.90
2022-12-08T22:20:08.788Z,3.90
2022-12-08T22:22:36.170Z,3.90
2022-12-08T22:25:05.512Z,3.90
2022-12-08T22:27:35.442Z,3.80
2022-12-08T22:30:02.913Z,3.80
2022-12-08T22:32:29.755Z,3.80
2022-12-08T22:34:56.598Z,3.70
2022-12-08T22:37:23.304Z,3.70
2022-12-08T22:39:50.187Z,3.80
2022-12-08T22:42:17.131Z,3.70
2022-12-08T22:44:43.976Z,3.70
2022-12-08T22:47:10.921Z,3.70
2022-12-08T22:49:37.744Z,3.70
2022-12-08T22:52:04.871Z,3.70
2022-12-08T22:54:31.785Z,3.70
2022-12-08T22:56:58.440Z,3.70
2022-12-08T22:59:25.371Z,3.70
2022-12-08T23:01:53.970Z,3.70
2022-12-08T23:04:20.884Z,3.70
2022-12-08T23:06:48.218Z,3.70
2022-12-08T23:09:15.238Z,3.70
2022-12-08T23:11:42.787Z,3.70
2022-12-08T23:14:09.515Z,3.70
2022-12-08T23:16:36.873Z,3.60
2022-12-08T23:19:03.816Z,3.60
2022-12-08T23:21:30.622Z,3.60
2022-12-08T23:23:57.366Z,3.60
2022-12-08T23:26:26.832Z,3.60
2022-12-08T23:28:54.089Z,3.60
2022-12-08T23:31:22.264Z,3.60
2022-12-08T23:33:49.308Z,3.60
2022-12-08T23:36:17.839Z,3.60
2022-12-08T23:38:44.794Z,3.60
2022-12-08T23:41:13.177Z,3.50
2022-12-08T23:43:45.384Z,3.50
2022-12-08T23:46:13.123Z,3.50
2022-12-08T23:48:40.205Z,3.40
2022-12-08T23:51:06.993Z,3.40
2022-12-08T23:53:34.054Z,3.40
2022-12-08T23:56:02.285Z,3.40
2022-12-08T23:58:30.888Z,3.40
